»·PEaware :: N187KT KPOC-P20

N187KT :: KPOC-P20

FLIGHT INFORMATION

Flight Status: Arrived
Operator: Privately registered:
United States
More flights under this callsign
Pilot: Kristoffer L. (6767)
Aircraft: BEECH AIRCRAFT BARON
(BE58)
More flights by this aircraft type
Origin: KPOC Brackett
United States
Destination: P20 Avi Suquilla
United States
More flights between these airports :: More routes between these airports
Route:
File this flight plan on PilotEdge
Remarks:
Altitude:
(Current/Filed)
11,500ft
Speed:
(Current/Filed)
160kts
Departed: 24-Aug-23 11:11 AM
Arrived: 24-Aug-23 12:25 PM
Distance/Time
Traveled:
174nm/1:14
Distance/Time
To Go:
Arrived

Flight Plot

Page will automatically refresh every two minutes.

Flight plan parsing failed; only flown route is shown


Map Options




Map Legend


Flown Route
Filed Route
Departure Airport
Arrival Airport
Navaid (VOR, NDB)
Fix

Horizontal Profiles

Position Reports

Time Latitude Longitude Heading Altitude Ground
Speed
24-Aug-23 10:55 34.089630 -117.775284 89 1003ft 0kts
24-Aug-23 10:56 34.089630 -117.775284 89 1003ft 0kts
24-Aug-23 10:57 34.089630 -117.775284 89 1003ft 0kts
24-Aug-23 10:58 34.089630 -117.775284 89 1003ft 0kts
24-Aug-23 10:59 34.089630 -117.775284 89 1003ft 0kts
24-Aug-23 11:00 34.089630 -117.775284 89 1003ft 0kts
24-Aug-23 11:01 34.089630 -117.775284 89 1003ft 0kts
24-Aug-23 11:02 34.089630 -117.775284 89 1003ft 0kts
24-Aug-23 11:03 34.089630 -117.775284 89 1003ft 0kts
24-Aug-23 11:04 34.089630 -117.775284 89 1003ft 0kts
24-Aug-23 11:05 34.089630 -117.775284 89 1003ft 0kts
24-Aug-23 11:05 34.089630 -117.775284 89 1003ft 0kts
24-Aug-23 11:07 34.089630 -117.775283 89 1003ft 0kts
24-Aug-23 11:08 34.090456 -117.774653 5 1005ft 0kts
24-Aug-23 11:09 34.090456 -117.774653 5 1005ft 0kts
24-Aug-23 11:09 34.090995 -117.775217 275 1005ft 20kts
24-Aug-23 11:10 34.091615 -117.809159 242 1982ft 141kts
24-Aug-23 11:11 34.057433 -117.798520 108 2754ft 159kts
24-Aug-23 11:13 34.050354 -117.743094 102 3808ft 152kts
24-Aug-23 11:13 34.042324 -117.699532 102 4262ft 163kts
24-Aug-23 11:14 34.034084 -117.648075 102 5039ft 152kts
24-Aug-23 11:15 34.027215 -117.599008 101 5814ft 145kts
24-Aug-23 11:16 34.021042 -117.552299 101 6612ft 138kts
24-Aug-23 11:17 34.015410 -117.508172 101 7320ft 132kts
24-Aug-23 11:18 34.010824 -117.464433 99 7950ft 130kts
24-Aug-23 11:19 34.007174 -117.422324 99 8615ft 124kts
24-Aug-23 11:20 34.004257 -117.381807 99 9306ft 118kts
24-Aug-23 11:21 34.001622 -117.341106 100 9735ft 126kts
24-Aug-23 11:22 33.998582 -117.298038 100 10103ft 133kts
24-Aug-23 11:23 33.995878 -117.259950 100 10462ft 132kts
24-Aug-23 11:24 33.993333 -117.216161 100 10966ft 129kts
24-Aug-23 11:25 33.991051 -117.173483 100 11451ft 127kts
24-Aug-23 11:26 33.989080 -117.131666 100 11943ft 126kts
24-Aug-23 11:27 33.986965 -117.087589 99 12129ft 142kts
24-Aug-23 11:28 33.989077 -117.036960 92 12148ft 157kts
24-Aug-23 11:29 33.995687 -116.983827 86 12225ft 158kts
24-Aug-23 11:30 34.001702 -116.930905 92 12257ft 160kts
24-Aug-23 11:31 34.004638 -116.877019 91 12276ft 163kts
24-Aug-23 11:32 34.008140 -116.822364 91 12282ft 163kts
24-Aug-23 11:33 34.011716 -116.767904 91 12287ft 163kts
24-Aug-23 11:34 34.015293 -116.713095 90 12292ft 165kts
24-Aug-23 11:35 34.018878 -116.657950 90 12294ft 165kts
24-Aug-23 11:36 34.022440 -116.602586 91 12293ft 166kts
24-Aug-23 11:37 34.026006 -116.546846 91 12296ft 166kts
24-Aug-23 11:38 34.029550 -116.491092 91 12297ft 167kts
24-Aug-23 11:39 34.033071 -116.435298 91 12303ft 167kts
24-Aug-23 11:40 34.036573 -116.379375 91 12315ft 166kts
24-Aug-23 11:41 34.040113 -116.320508 91 11933ft 184kts
24-Aug-23 11:42 34.044008 -116.257684 90 11476ft 191kts
24-Aug-23 11:43 34.047991 -116.193237 90 10976ft 192kts
24-Aug-23 11:44 34.051875 -116.129345 90 10453ft 191kts
24-Aug-23 11:45 34.055721 -116.065409 89 10037ft 186kts
24-Aug-23 11:46 34.059316 -116.005863 90 10042ft 173kts
24-Aug-23 11:47 34.062659 -115.948948 90 10053ft 168kts
24-Aug-23 11:48 34.065933 -115.892816 90 10052ft 168kts
24-Aug-23 11:49 34.069175 -115.837325 90 10089ft 162kts
24-Aug-23 11:50 34.071310 -115.800534 89 10080ft 157kts
24-Aug-23 11:51 34.073950 -115.754485 90 10087ft 154kts
24-Aug-23 11:52 34.076885 -115.702822 89 10073ft 153kts
24-Aug-23 11:53 34.079695 -115.651563 90 10079ft 153kts
24-Aug-23 11:54 34.082565 -115.600011 90 10078ft 154kts
24-Aug-23 11:55 34.085442 -115.548497 89 10083ft 153kts
24-Aug-23 11:56 34.088333 -115.496846 89 10068ft 154kts
24-Aug-23 11:57 34.091249 -115.445024 89 10072ft 155kts
24-Aug-23 11:58 34.094089 -115.393170 89 10058ft 154kts
24-Aug-23 11:59 34.096889 -115.341346 89 10056ft 154kts
24-Aug-23 12:00 34.099664 -115.289585 89 10055ft 155kts
24-Aug-23 12:01 34.102448 -115.237345 90 10040ft 155kts
24-Aug-23 12:02 34.105199 -115.185225 89 10040ft 155kts
24-Aug-23 12:03 34.107915 -115.133253 89 10032ft 155kts
24-Aug-23 12:04 34.110613 -115.081348 89 10031ft 154kts
24-Aug-23 12:05 34.113278 -115.029572 89 10035ft 154kts
24-Aug-23 12:06 34.115918 -114.977842 88 10037ft 154kts
24-Aug-23 12:07 34.118549 -114.925903 89 10035ft 155kts
24-Aug-23 12:08 34.121144 -114.874012 89 10033ft 154kts
24-Aug-23 12:09 34.123671 -114.822306 88 10032ft 155kts
24-Aug-23 12:10 34.126369 -114.767126 88 9625ft 171kts
24-Aug-23 12:11 34.129216 -114.708921 88 9155ft 175kts
24-Aug-23 12:12 34.132053 -114.649690 88 8662ft 176kts
24-Aug-23 12:13 34.134631 -114.590859 88 8151ft 173kts
24-Aug-23 12:14 34.136992 -114.534435 88 7487ft 168kts
24-Aug-23 12:15 34.143813 -114.477235 79 7085ft 181kts
24-Aug-23 12:16 34.154845 -114.416345 79 6283ft 182kts
24-Aug-23 12:17 34.162097 -114.357477 87 4743ft 174kts
24-Aug-23 12:18 34.156685 -114.301639 106 3035ft 157kts
24-Aug-23 12:19 34.144998 -114.254668 89 1823ft 138kts
24-Aug-23 12:20 34.175122 -114.225341 26 1734ft 149kts
24-Aug-23 12:21 34.210217 -114.225326 278 1490ft 133kts
24-Aug-23 12:22 34.183185 -114.247737 203 1090ft 122kts
24-Aug-23 12:23 34.155450 -114.264409 204 453ft 86kts
24-Aug-23 12:24 34.143368 -114.271712 208 450ft 23kts
24-Aug-23 12:25 34.145609 -114.274243 26 447ft 35kts
24-Aug-23 12:26 34.148331 -114.272622 31 448ft 0kts
24-Aug-23 12:27 34.148331 -114.272622 31 448ft 0kts

Navigation Log

Ident Type
Flight plan parsing failed, navigation log unavailable